sensor_id;sensor_type;location;lat;lon;timestamp;P1;durP1;ratioP1;P2;durP2;ratioP2
47481;SDS011;33219;47.410;9.730;2023-07-16T00:02:05;5.90;;;4.00;;
47481;SDS011;33219;47.410;9.730;2023-07-16T00:04:33;7.30;;;4.53;;
47481;SDS011;33219;47.410;9.730;2023-07-16T00:07:00;6.58;;;4.45;;
47481;SDS011;33219;47.410;9.730;2023-07-16T00:09:28;6.72;;;4.62;;
47481;SDS011;33219;47.410;9.730;2023-07-16T00:11:56;4.78;;;3.87;;
47481;SDS011;33219;47.410;9.730;2023-07-16T00:14:23;7.58;;;4.10;;
47481;SDS011;33219;47.410;9.730;2023-07-16T00:16:51;5.67;;;4.20;;
47481;SDS011;33219;47.410;9.730;2023-07-16T00:19:18;5.22;;;4.05;;
47481;SDS011;33219;47.410;9.730;2023-07-16T00:21:46;4.70;;;3.65;;
47481;SDS011;33219;47.410;9.730;2023-07-16T00:24:14;7.12;;;3.55;;
47481;SDS011;33219;47.410;9.730;2023-07-16T00:26:41;4.83;;;3.02;;
47481;SDS011;33219;47.410;9.730;2023-07-16T00:29:09;4.37;;;3.58;;
47481;SDS011;33219;47.410;9.730;2023-07-16T00:31:36;6.30;;;3.47;;
47481;SDS011;33219;47.410;9.730;2023-07-16T00:34:04;4.97;;;3.50;;
47481;SDS011;33219;47.410;9.730;2023-07-16T00:36:31;4.78;;;3.10;;
47481;SDS011;33219;47.410;9.730;2023-07-16T00:38:59;4.92;;;3.33;;
47481;SDS011;33219;47.410;9.730;2023-07-16T00:41:26;5.30;;;3.40;;
47481;SDS011;33219;47.410;9.730;2023-07-16T00:43:54;5.28;;;2.95;;
47481;SDS011;33219;47.410;9.730;2023-07-16T00:46:21;4.87;;;3.10;;
47481;SDS011;33219;47.410;9.730;2023-07-16T00:48:50;5.65;;;3.17;;
47481;SDS011;33219;47.410;9.730;2023-07-16T00:51:18;5.58;;;3.62;;
47481;SDS011;33219;47.410;9.730;2023-07-16T00:53:48;4.90;;;3.37;;
47481;SDS011;33219;47.410;9.730;2023-07-16T00:56:16;5.55;;;3.00;;
47481;SDS011;33219;47.410;9.730;2023-07-16T00:58:44;6.40;;;3.27;;
47481;SDS011;33219;47.410;9.730;2023-07-16T01:01:11;3.75;;;3.05;;
47481;SDS011;33219;47.410;9.730;2023-07-16T01:03:39;5.33;;;3.35;;
47481;SDS011;33219;47.410;9.730;2023-07-16T01:06:11;4.45;;;3.12;;
47481;SDS011;33219;47.410;9.730;2023-07-16T01:08:49;3.85;;;2.60;;
47481;SDS011;33219;47.410;9.730;2023-07-16T01:11:17;5.75;;;2.58;;
47481;SDS011;33219;47.410;9.730;2023-07-16T01:13:45;5.35;;;2.50;;
47481;SDS011;33219;47.410;9.730;2023-07-16T01:16:23;4.97;;;2.52;;
47481;SDS011;33219;47.410;9.730;2023-07-16T01:18:51;4.15;;;2.00;;
47481;SDS011;33219;47.410;9.730;2023-07-16T01:21:20;2.50;;;1.70;;
47481;SDS011;33219;47.410;9.730;2023-07-16T01:24:11;3.37;;;1.67;;
47481;SDS011;33219;47.410;9.730;2023-07-16T01:29:41;3.00;;;1.60;;
47481;SDS011;33219;47.410;9.730;2023-07-16T01:32:12;3.20;;;1.20;;
47481;SDS011;33219;47.410;9.730;2023-07-16T01:34:41;2.22;;;1.55;;
47481;SDS011;33219;47.410;9.730;2023-07-16T01:37:10;2.37;;;1.30;;
47481;SDS011;33219;47.410;9.730;2023-07-16T01:39:38;2.02;;;1.30;;
47481;SDS011;33219;47.410;9.730;2023-07-16T01:42:05;2.17;;;1.22;;
47481;SDS011;33219;47.410;9.730;2023-07-16T01:44:34;2.83;;;1.20;;
47481;SDS011;33219;47.410;9.730;2023-07-16T01:47:12;1.67;;;1.35;;
47481;SDS011;33219;47.410;9.730;2023-07-16T01:49:50;2.98;;;1.47;;
47481;SDS011;33219;47.410;9.730;2023-07-16T01:52:17;3.72;;;1.70;;
47481;SDS011;33219;47.410;9.730;2023-07-16T01:54:45;4.50;;;2.20;;
47481;SDS011;33219;47.410;9.730;2023-07-16T01:57:13;6.42;;;2.05;;
47481;SDS011;33219;47.410;9.730;2023-07-16T01:59:42;2.95;;;1.87;;
47481;SDS011;33219;47.410;9.730;2023-07-16T02:02:09;3.47;;;1.67;;
47481;SDS011;33219;47.410;9.730;2023-07-16T02:04:37;3.90;;;2.10;;
47481;SDS011;33219;47.410;9.730;2023-07-16T02:07:04;4.30;;;2.17;;
47481;SDS011;33219;47.410;9.730;2023-07-16T02:09:33;3.60;;;1.80;;
47481;SDS011;33219;47.410;9.730;2023-07-16T02:12:01;2.15;;;1.60;;
47481;SDS011;33219;47.410;9.730;2023-07-16T02:14:29;3.15;;;1.80;;
47481;SDS011;33219;47.410;9.730;2023-07-16T02:16:56;2.62;;;1.42;;
47481;SDS011;33219;47.410;9.730;2023-07-16T02:19:24;2.15;;;1.55;;
47481;SDS011;33219;47.410;9.730;2023-07-16T02:21:52;2.58;;;1.70;;
47481;SDS011;33219;47.410;9.730;2023-07-16T02:24:20;2.87;;;1.80;;
47481;SDS011;33219;47.410;9.730;2023-07-16T02:26:52;2.90;;;1.85;;
47481;SDS011;33219;47.410;9.730;2023-07-16T02:29:16;4.75;;;2.08;;
47481;SDS011;33219;47.410;9.730;2023-07-16T02:31:44;4.03;;;1.92;;
47481;SDS011;33219;47.410;9.730;2023-07-16T02:34:13;4.00;;;2.10;;
47481;SDS011;33219;47.410;9.730;2023-07-16T02:36:41;2.85;;;1.80;;
47481;SDS011;33219;47.410;9.730;2023-07-16T02:39:09;4.70;;;2.40;;
47481;SDS011;33219;47.410;9.730;2023-07-16T02:41:36;3.33;;;2.20;;
47481;SDS011;33219;47.410;9.730;2023-07-16T02:44:04;3.55;;;1.90;;
47481;SDS011;33219;47.410;9.730;2023-07-16T02:46:33;2.65;;;2.00;;
47481;SDS011;33219;47.410;9.730;2023-07-16T02:49:02;4.33;;;1.90;;
47481;SDS011;33219;47.410;9.730;2023-07-16T02:51:30;2.47;;;1.95;;
47481;SDS011;33219;47.410;9.730;2023-07-16T02:53:58;3.55;;;1.98;;
47481;SDS011;33219;47.410;9.730;2023-07-16T02:56:26;3.10;;;2.00;;
47481;SDS011;33219;47.410;9.730;2023-07-16T02:58:54;2.35;;;1.72;;
47481;SDS011;33219;47.410;9.730;2023-07-16T03:01:21;2.30;;;1.90;;
47481;SDS011;33219;47.410;9.730;2023-07-16T03:03:49;3.95;;;1.95;;
47481;SDS011;33219;47.410;9.730;2023-07-16T03:06:17;2.67;;;1.98;;
47481;SDS011;33219;47.410;9.730;2023-07-16T03:08:44;3.17;;;2.17;;
47481;SDS011;33219;47.410;9.730;2023-07-16T03:11:12;3.20;;;1.90;;
47481;SDS011;33219;47.410;9.730;2023-07-16T03:13:39;3.25;;;1.85;;
47481;SDS011;33219;47.410;9.730;2023-07-16T03:16:07;2.62;;;1.70;;
47481;SDS011;33219;47.410;9.730;2023-07-16T03:18:34;3.55;;;2.17;;
47481;SDS011;33219;47.410;9.730;2023-07-16T03:21:03;3.77;;;2.20;;
47481;SDS011;33219;47.410;9.730;2023-07-16T03:23:30;2.52;;;1.87;;
47481;SDS011;33219;47.410;9.730;2023-07-16T03:25:58;3.00;;;2.20;;
47481;SDS011;33219;47.410;9.730;2023-07-16T03:28:26;3.42;;;2.17;;
47481;SDS011;33219;47.410;9.730;2023-07-16T03:30:53;3.75;;;2.15;;
47481;SDS011;33219;47.410;9.730;2023-07-16T03:33:21;2.95;;;2.00;;
47481;SDS011;33219;47.410;9.730;2023-07-16T03:35:49;3.25;;;1.90;;
47481;SDS011;33219;47.410;9.730;2023-07-16T03:38:17;2.75;;;1.87;;
47481;SDS011;33219;47.410;9.730;2023-07-16T03:40:48;2.67;;;2.02;;
47481;SDS011;33219;47.410;9.730;2023-07-16T03:43:16;3.00;;;2.10;;
47481;SDS011;33219;47.410;9.730;2023-07-16T03:45:44;3.05;;;1.95;;
47481;SDS011;33219;47.410;9.730;2023-07-16T03:48:12;2.83;;;1.92;;
47481;SDS011;33219;47.410;9.730;2023-07-16T03:50:40;3.50;;;2.10;;
47481;SDS011;33219;47.410;9.730;2023-07-16T03:53:07;3.52;;;2.27;;
47481;SDS011;33219;47.410;9.730;2023-07-16T03:55:35;3.50;;;2.20;;
47481;SDS011;33219;47.410;9.730;2023-07-16T03:58:03;2.87;;;1.98;;
47481;SDS011;33219;47.410;9.730;2023-07-16T04:00:30;2.90;;;1.67;;
47481;SDS011;33219;47.410;9.730;2023-07-16T04:02:59;2.40;;;1.82;;
47481;SDS011;33219;47.410;9.730;2023-07-16T04:05:26;2.92;;;1.90;;
47481;SDS011;33219;47.410;9.730;2023-07-16T04:07:54;2.50;;;1.92;;
47481;SDS011;33219;47.410;9.730;2023-07-16T04:10:21;2.58;;;2.10;;
47481;SDS011;33219;47.410;9.730;2023-07-16T04:12:49;2.95;;;2.08;;
47481;SDS011;33219;47.410;9.730;2023-07-16T04:15:16;3.83;;;2.10;;
47481;SDS011;33219;47.410;9.730;2023-07-16T04:17:44;3.22;;;2.05;;
47481;SDS011;33219;47.410;9.730;2023-07-16T04:20:11;2.60;;;2.00;;
47481;SDS011;33219;47.410;9.730;2023-07-16T04:22:39;2.83;;;1.82;;
47481;SDS011;33219;47.410;9.730;2023-07-16T04:25:07;2.77;;;2.00;;
47481;SDS011;33219;47.410;9.730;2023-07-16T04:27:35;3.22;;;2.02;;
47481;SDS011;33219;47.410;9.730;2023-07-16T04:30:02;3.08;;;1.95;;
47481;SDS011;33219;47.410;9.730;2023-07-16T04:32:30;2.27;;;1.70;;
47481;SDS011;33219;47.410;9.730;2023-07-16T04:34:58;2.80;;;1.80;;
47481;SDS011;33219;47.410;9.730;2023-07-16T04:37:26;2.22;;;1.67;;
47481;SDS011;33219;47.410;9.730;2023-07-16T04:39:54;2.45;;;1.80;;
47481;SDS011;33219;47.410;9.730;2023-07-16T04:42:22;3.92;;;1.87;;
47481;SDS011;33219;47.410;9.730;2023-07-16T04:44:50;2.50;;;1.75;;
47481;SDS011;33219;47.410;9.730;2023-07-16T04:47:17;3.92;;;1.98;;
47481;SDS011;33219;47.410;9.730;2023-07-16T04:49:45;3.58;;;2.00;;
47481;SDS011;33219;47.410;9.730;2023-07-16T04:52:12;3.15;;;2.00;;
47481;SDS011;33219;47.410;9.730;2023-07-16T04:54:40;3.45;;;1.90;;
47481;SDS011;33219;47.410;9.730;2023-07-16T04:57:08;3.10;;;2.00;;
47481;SDS011;33219;47.410;9.730;2023-07-16T04:59:35;3.40;;;2.17;;
47481;SDS011;33219;47.410;9.730;2023-07-16T05:02:04;3.40;;;2.10;;
47481;SDS011;33219;47.410;9.730;2023-07-16T05:04:33;3.70;;;2.20;;
47481;SDS011;33219;47.410;9.730;2023-07-16T05:07:04;2.92;;;2.17;;
47481;SDS011;33219;47.410;9.730;2023-07-16T05:09:31;2.20;;;1.62;;
47481;SDS011;33219;47.410;9.730;2023-07-16T05:11:59;2.40;;;1.75;;
47481;SDS011;33219;47.410;9.730;2023-07-16T05:14:27;2.50;;;1.82;;
47481;SDS011;33219;47.410;9.730;2023-07-16T05:16:55;3.90;;;2.00;;
47481;SDS011;33219;47.410;9.730;2023-07-16T05:19:23;2.85;;;2.05;;
47481;SDS011;33219;47.410;9.730;2023-07-16T05:21:50;2.87;;;1.90;;
47481;SDS011;33219;47.410;9.730;2023-07-16T05:24:18;2.80;;;1.98;;
47481;SDS011;33219;47.410;9.730;2023-07-16T05:26:45;3.25;;;2.00;;
47481;SDS011;33219;47.410;9.730;2023-07-16T05:29:14;3.22;;;2.00;;
47481;SDS011;33219;47.410;9.730;2023-07-16T05:31:42;2.58;;;1.80;;
47481;SDS011;33219;47.410;9.730;2023-07-16T05:34:11;3.20;;;1.70;;
47481;SDS011;33219;47.410;9.730;2023-07-16T05:36:40;2.67;;;1.67;;
47481;SDS011;33219;47.410;9.730;2023-07-16T05:39:10;3.10;;;1.90;;
47481;SDS011;33219;47.410;9.730;2023-07-16T05:41:39;2.80;;;1.92;;
47481;SDS011;33219;47.410;9.730;2023-07-16T05:44:07;3.20;;;1.80;;
47481;SDS011;33219;47.410;9.730;2023-07-16T05:46:35;2.90;;;1.90;;
47481;SDS011;33219;47.410;9.730;2023-07-16T05:49:02;2.70;;;1.70;;
47481;SDS011;33219;47.410;9.730;2023-07-16T05:51:30;3.12;;;1.95;;
47481;SDS011;33219;47.410;9.730;2023-07-16T05:53:57;3.42;;;1.80;;
47481;SDS011;33219;47.410;9.730;2023-07-16T05:56:25;3.05;;;1.82;;
47481;SDS011;33219;47.410;9.730;2023-07-16T05:58:53;3.12;;;1.82;;
47481;SDS011;33219;47.410;9.730;2023-07-16T06:01:20;2.80;;;1.75;;
47481;SDS011;33219;47.410;9.730;2023-07-16T06:03:48;3.10;;;1.85;;
47481;SDS011;33219;47.410;9.730;2023-07-16T06:06:15;3.08;;;1.98;;
47481;SDS011;33219;47.410;9.730;2023-07-16T06:08:43;3.17;;;1.90;;
47481;SDS011;33219;47.410;9.730;2023-07-16T06:11:11;2.85;;;1.75;;
47481;SDS011;33219;47.410;9.730;2023-07-16T06:13:39;2.90;;;2.02;;
47481;SDS011;33219;47.410;9.730;2023-07-16T06:16:07;2.58;;;1.70;;
47481;SDS011;33219;47.410;9.730;2023-07-16T06:18:34;2.47;;;1.98;;
47481;SDS011;33219;47.410;9.730;2023-07-16T06:21:02;2.80;;;1.80;;
47481;SDS011;33219;47.410;9.730;2023-07-16T06:23:30;3.40;;;2.00;;
47481;SDS011;33219;47.410;9.730;2023-07-16T06:25:57;2.35;;;1.65;;
47481;SDS011;33219;47.410;9.730;2023-07-16T06:28:25;2.37;;;1.60;;
47481;SDS011;33219;47.410;9.730;2023-07-16T06:30:52;3.08;;;2.05;;
47481;SDS011;33219;47.410;9.730;2023-07-16T06:33:20;2.83;;;2.00;;
47481;SDS011;33219;47.410;9.730;2023-07-16T06:35:48;2.27;;;1.70;;
47481;SDS011;33219;47.410;9.730;2023-07-16T06:38:15;2.62;;;1.62;;
47481;SDS011;33219;47.410;9.730;2023-07-16T06:40:46;3.50;;;2.02;;
47481;SDS011;33219;47.410;9.730;2023-07-16T06:43:17;3.00;;;1.80;;
47481;SDS011;33219;47.410;9.730;2023-07-16T06:45:45;2.95;;;1.80;;
47481;SDS011;33219;47.410;9.730;2023-07-16T06:48:14;2.17;;;1.47;;
47481;SDS011;33219;47.410;9.730;2023-07-16T06:50:42;2.80;;;1.70;;
47481;SDS011;33219;47.410;9.730;2023-07-16T06:53:09;2.30;;;1.77;;
47481;SDS011;33219;47.410;9.730;2023-07-16T06:55:37;2.40;;;1.52;;
47481;SDS011;33219;47.410;9.730;2023-07-16T06:58:05;2.52;;;1.52;;
47481;SDS011;33219;47.410;9.730;2023-07-16T07:00:32;2.50;;;1.60;;
47481;SDS011;33219;47.410;9.730;2023-07-16T07:03:00;3.45;;;1.95;;
47481;SDS011;33219;47.410;9.730;2023-07-16T07:05:27;2.75;;;1.65;;
47481;SDS011;33219;47.410;9.730;2023-07-16T07:07:55;2.30;;;1.72;;
47481;SDS011;33219;47.410;9.730;2023-07-16T07:10:24;2.95;;;1.70;;
47481;SDS011;33219;47.410;9.730;2023-07-16T07:12:51;2.25;;;1.70;;
47481;SDS011;33219;47.410;9.730;2023-07-16T07:15:19;2.50;;;1.65;;
47481;SDS011;33219;47.410;9.730;2023-07-16T07:17:46;3.10;;;1.50;;
47481;SDS011;33219;47.410;9.730;2023-07-16T07:20:14;2.75;;;1.67;;
47481;SDS011;33219;47.410;9.730;2023-07-16T07:22:42;2.55;;;1.70;;
47481;SDS011;33219;47.410;9.730;2023-07-16T07:25:09;2.80;;;1.50;;
47481;SDS011;33219;47.410;9.730;2023-07-16T07:27:37;2.98;;;1.70;;
47481;SDS011;33219;47.410;9.730;2023-07-16T07:30:05;2.40;;;1.70;;
47481;SDS011;33219;47.410;9.730;2023-07-16T07:32:33;2.58;;;1.72;;
47481;SDS011;33219;47.410;9.730;2023-07-16T07:35:04;2.22;;;1.75;;
47481;SDS011;33219;47.410;9.730;2023-07-16T07:37:32;2.50;;;1.57;;
47481;SDS011;33219;47.410;9.730;2023-07-16T07:39:59;3.12;;;1.50;;
47481;SDS011;33219;47.410;9.730;2023-07-16T07:42:28;2.10;;;1.60;;
47481;SDS011;33219;47.410;9.730;2023-07-16T07:44:56;2.40;;;1.70;;
47481;SDS011;33219;47.410;9.730;2023-07-16T07:47:24;2.10;;;1.60;;
47481;SDS011;33219;47.410;9.730;2023-07-16T07:49:52;3.22;;;1.57;;
47481;SDS011;33219;47.410;9.730;2023-07-16T07:52:20;2.52;;;1.60;;
47481;SDS011;33219;47.410;9.730;2023-07-16T07:54:47;1.87;;;1.50;;
47481;SDS011;33219;47.410;9.730;2023-07-16T07:57:16;2.20;;;1.60;;
47481;SDS011;33219;47.410;9.730;2023-07-16T07:59:43;1.80;;;1.52;;
47481;SDS011;33219;47.410;9.730;2023-07-16T08:02:11;2.08;;;1.42;;
47481;SDS011;33219;47.410;9.730;2023-07-16T08:04:38;2.50;;;1.65;;
47481;SDS011;33219;47.410;9.730;2023-07-16T08:07:06;2.05;;;1.50;;
47481;SDS011;33219;47.410;9.730;2023-07-16T08:09:33;2.77;;;1.52;;
47481;SDS011;33219;47.410;9.730;2023-07-16T08:12:01;1.80;;;1.40;;
47481;SDS011;33219;47.410;9.730;2023-07-16T08:14:28;2.52;;;1.60;;
47481;SDS011;33219;47.410;9.730;2023-07-16T08:16:56;3.33;;;1.47;;
47481;SDS011;33219;47.410;9.730;2023-07-16T08:19:23;2.37;;;1.60;;
47481;SDS011;33219;47.410;9.730;2023-07-16T08:21:51;2.65;;;1.72;;
47481;SDS011;33219;47.410;9.730;2023-07-16T08:24:21;2.42;;;1.70;;
47481;SDS011;33219;47.410;9.730;2023-07-16T08:26:49;2.58;;;1.70;;
47481;SDS011;33219;47.410;9.730;2023-07-16T08:29:16;2.08;;;1.55;;
47481;SDS011;33219;47.410;9.730;2023-07-16T08:31:44;2.00;;;1.50;;
47481;SDS011;33219;47.410;9.730;2023-07-16T08:34:11;1.98;;;1.47;;
47481;SDS011;33219;47.410;9.730;2023-07-16T08:36:39;2.40;;;1.60;;
47481;SDS011;33219;47.410;9.730;2023-07-16T08:39:08;3.10;;;1.70;;
47481;SDS011;33219;47.410;9.730;2023-07-16T08:41:36;2.30;;;1.42;;
47481;SDS011;33219;47.410;9.730;2023-07-16T08:44:03;2.42;;;1.52;;
47481;SDS011;33219;47.410;9.730;2023-07-16T08:46:31;2.52;;;1.52;;
47481;SDS011;33219;47.410;9.730;2023-07-16T08:48:59;1.82;;;1.50;;
47481;SDS011;33219;47.410;9.730;2023-07-16T08:51:28;2.35;;;1.50;;
47481;SDS011;33219;47.410;9.730;2023-07-16T08:53:57;2.02;;;1.45;;
47481;SDS011;33219;47.410;9.730;2023-07-16T08:56:25;2.50;;;1.90;;
47481;SDS011;33219;47.410;9.730;2023-07-16T08:58:54;2.72;;;1.62;;
47481;SDS011;33219;47.410;9.730;2023-07-16T09:01:22;1.85;;;1.50;;
47481;SDS011;33219;47.410;9.730;2023-07-16T09:03:50;2.67;;;1.70;;
47481;SDS011;33219;47.410;9.730;2023-07-16T09:06:17;2.25;;;1.72;;
47481;SDS011;33219;47.410;9.730;2023-07-16T09:08:45;3.58;;;1.70;;
47481;SDS011;33219;47.410;9.730;2023-07-16T09:11:13;2.15;;;1.50;;
47481;SDS011;33219;47.410;9.730;2023-07-16T09:13:44;1.92;;;1.45;;
47481;SDS011;33219;47.410;9.730;2023-07-16T09:16:12;1.95;;;1.60;;
47481;SDS011;33219;47.410;9.730;2023-07-16T09:18:44;2.08;;;1.60;;
47481;SDS011;33219;47.410;9.730;2023-07-16T09:21:11;2.50;;;1.62;;
47481;SDS011;33219;47.410;9.730;2023-07-16T09:23:39;3.40;;;1.70;;
47481;SDS011;33219;47.410;9.730;2023-07-16T09:26:07;3.40;;;1.77;;
47481;SDS011;33219;47.410;9.730;2023-07-16T09:28:35;2.70;;;1.80;;
47481;SDS011;33219;47.410;9.730;2023-07-16T09:31:03;2.52;;;1.80;;
47481;SDS011;33219;47.410;9.730;2023-07-16T09:33:32;2.62;;;1.47;;
47481;SDS011;33219;47.410;9.730;2023-07-16T09:36:00;4.03;;;1.60;;
47481;SDS011;33219;47.410;9.730;2023-07-16T09:38:29;2.98;;;1.67;;
47481;SDS011;33219;47.410;9.730;2023-07-16T09:40:58;2.37;;;1.65;;
47481;SDS011;33219;47.410;9.730;2023-07-16T09:43:27;2.15;;;1.57;;
47481;SDS011;33219;47.410;9.730;2023-07-16T09:45:54;2.50;;;1.70;;
47481;SDS011;33219;47.410;9.730;2023-07-16T09:48:22;3.22;;;1.70;;
47481;SDS011;33219;47.410;9.730;2023-07-16T09:50:50;2.55;;;1.70;;
47481;SDS011;33219;47.410;9.730;2023-07-16T09:53:21;3.45;;;2.20;;
47481;SDS011;33219;47.410;9.730;2023-07-16T09:55:48;2.45;;;1.60;;
47481;SDS011;33219;47.410;9.730;2023-07-16T09:58:18;4.00;;;2.00;;
47481;SDS011;33219;47.410;9.730;2023-07-16T10:00:48;2.65;;;1.60;;
47481;SDS011;33219;47.410;9.730;2023-07-16T10:03:17;1.80;;;1.40;;
47481;SDS011;33219;47.410;9.730;2023-07-16T10:05:45;2.50;;;1.65;;
47481;SDS011;33219;47.410;9.730;2023-07-16T10:08:17;1.98;;;1.72;;
47481;SDS011;33219;47.410;9.730;2023-07-16T10:10:49;2.75;;;1.87;;
47481;SDS011;33219;47.410;9.730;2023-07-16T10:13:22;2.08;;;1.60;;
47481;SDS011;33219;47.410;9.730;2023-07-16T10:15:51;2.08;;;1.67;;
47481;SDS011;33219;47.410;9.730;2023-07-16T10:18:23;2.47;;;1.77;;
47481;SDS011;33219;47.410;9.730;2023-07-16T10:21:08;2.98;;;1.72;;
47481;SDS011;33219;47.410;9.730;2023-07-16T10:23:40;3.20;;;1.80;;
47481;SDS011;33219;47.410;9.730;2023-07-16T10:26:09;2.60;;;1.77;;
47481;SDS011;33219;47.410;9.730;2023-07-16T10:28:39;2.45;;;1.65;;
47481;SDS011;33219;47.410;9.730;2023-07-16T10:31:16;2.47;;;1.67;;
47481;SDS011;33219;47.410;9.730;2023-07-16T10:33:55;3.12;;;1.90;;
47481;SDS011;33219;47.410;9.730;2023-07-16T10:36:25;4.62;;;1.80;;
47481;SDS011;33219;47.410;9.730;2023-07-16T10:38:53;2.65;;;1.80;;
47481;SDS011;33219;47.410;9.730;2023-07-16T10:41:20;2.72;;;1.80;;
47481;SDS011;33219;47.410;9.730;2023-07-16T10:43:49;2.22;;;1.60;;
47481;SDS011;33219;47.410;9.730;2023-07-16T10:46:17;3.05;;;1.70;;
47481;SDS011;33219;47.410;9.730;2023-07-16T10:48:46;3.87;;;2.00;;
47481;SDS011;33219;47.410;9.730;2023-07-16T10:51:14;3.08;;;1.70;;
47481;SDS011;33219;47.410;9.730;2023-07-16T10:53:42;2.92;;;1.75;;
47481;SDS011;33219;47.410;9.730;2023-07-16T10:56:10;2.87;;;1.80;;
47481;SDS011;33219;47.410;9.730;2023-07-16T10:58:38;3.67;;;2.00;;
47481;SDS011;33219;47.410;9.730;2023-07-16T11:01:08;2.85;;;1.80;;
47481;SDS011;33219;47.410;9.730;2023-07-16T11:03:36;3.47;;;2.10;;
47481;SDS011;33219;47.410;9.730;2023-07-16T11:06:06;2.75;;;1.92;;
47481;SDS011;33219;47.410;9.730;2023-07-16T11:08:37;3.22;;;1.87;;
47481;SDS011;33219;47.410;9.730;2023-07-16T11:11:05;3.33;;;1.75;;
47481;SDS011;33219;47.410;9.730;2023-07-16T11:13:33;3.02;;;2.00;;
47481;SDS011;33219;47.410;9.730;2023-07-16T11:16:07;3.33;;;2.02;;
47481;SDS011;33219;47.410;9.730;2023-07-16T11:18:35;3.58;;;2.00;;
47481;SDS011;33219;47.410;9.730;2023-07-16T11:21:03;2.90;;;1.80;;
47481;SDS011;33219;47.410;9.730;2023-07-16T11:23:36;2.65;;;1.75;;
47481;SDS011;33219;47.410;9.730;2023-07-16T11:26:05;2.58;;;1.85;;
47481;SDS011;33219;47.410;9.730;2023-07-16T11:28:38;3.12;;;2.00;;
47481;SDS011;33219;47.410;9.730;2023-07-16T11:31:12;3.20;;;1.98;;
47481;SDS011;33219;47.410;9.730;2023-07-16T11:33:43;3.00;;;1.87;;
47481;SDS011;33219;47.410;9.730;2023-07-16T11:36:12;3.00;;;1.80;;
47481;SDS011;33219;47.410;9.730;2023-07-16T11:38:40;2.70;;;1.90;;
47481;SDS011;33219;47.410;9.730;2023-07-16T11:41:07;2.40;;;1.60;;
47481;SDS011;33219;47.410;9.730;2023-07-16T11:43:35;2.62;;;1.82;;
47481;SDS011;33219;47.410;9.730;2023-07-16T11:46:13;2.62;;;1.77;;
47481;SDS011;33219;47.410;9.730;2023-07-16T11:48:35;2.37;;;1.83;;
47481;SDS011;33219;47.410;9.730;2023-07-16T11:51:03;3.05;;;1.85;;
47481;SDS011;33219;47.410;9.730;2023-07-16T11:53:30;3.17;;;2.02;;
47481;SDS011;33219;47.410;9.730;2023-07-16T11:55:58;2.52;;;1.85;;
47481;SDS011;33219;47.410;9.730;2023-07-16T11:58:25;3.87;;;1.90;;
47481;SDS011;33219;47.410;9.730;2023-07-16T12:00:53;3.37;;;1.90;;
47481;SDS011;33219;47.410;9.730;2023-07-16T12:03:20;3.52;;;2.10;;
47481;SDS011;33219;47.410;9.730;2023-07-16T12:05:48;3.12;;;2.00;;
47481;SDS011;33219;47.410;9.730;2023-07-16T12:08:16;2.90;;;2.10;;
47481;SDS011;33219;47.410;9.730;2023-07-16T12:10:43;3.40;;;1.90;;
47481;SDS011;33219;47.410;9.730;2023-07-16T12:13:11;3.30;;;2.17;;
47481;SDS011;33219;47.410;9.730;2023-07-16T12:15:38;4.25;;;1.87;;
47481;SDS011;33219;47.410;9.730;2023-07-16T12:18:06;3.40;;;1.95;;
47481;SDS011;33219;47.410;9.730;2023-07-16T12:20:34;4.10;;;2.00;;
47481;SDS011;33219;47.410;9.730;2023-07-16T12:23:02;2.70;;;1.75;;
47481;SDS011;33219;47.410;9.730;2023-07-16T12:25:29;3.27;;;1.90;;
47481;SDS011;33219;47.410;9.730;2023-07-16T12:27:57;2.80;;;2.10;;
47481;SDS011;33219;47.410;9.730;2023-07-16T12:30:24;2.85;;;2.00;;
47481;SDS011;33219;47.410;9.730;2023-07-16T12:32:52;3.80;;;2.35;;
47481;SDS011;33219;47.410;9.730;2023-07-16T12:35:19;3.20;;;1.90;;
47481;SDS011;33219;47.410;9.730;2023-07-16T12:37:47;4.70;;;2.20;;
47481;SDS011;33219;47.410;9.730;2023-07-16T12:40:15;5.60;;;1.92;;
47481;SDS011;33219;47.410;9.730;2023-07-16T12:42:43;2.75;;;1.80;;
47481;SDS011;33219;47.410;9.730;2023-07-16T12:45:10;4.35;;;2.70;;
47481;SDS011;33219;47.410;9.730;2023-07-16T12:47:38;3.30;;;1.87;;
47481;SDS011;33219;47.410;9.730;2023-07-16T12:50:06;3.22;;;2.15;;
47481;SDS011;33219;47.410;9.730;2023-07-16T12:52:34;2.92;;;1.87;;
47481;SDS011;33219;47.410;9.730;2023-07-16T12:55:01;3.80;;;2.05;;
47481;SDS011;33219;47.410;9.730;2023-07-16T12:57:29;4.35;;;2.12;;
47481;SDS011;33219;47.410;9.730;2023-07-16T12:59:58;3.12;;;2.00;;
47481;SDS011;33219;47.410;9.730;2023-07-16T13:02:25;2.85;;;2.10;;
47481;SDS011;33219;47.410;9.730;2023-07-16T13:04:53;3.37;;;2.10;;
47481;SDS011;33219;47.410;9.730;2023-07-16T13:07:21;3.37;;;2.10;;
47481;SDS011;33219;47.410;9.730;2023-07-16T13:09:49;5.33;;;2.72;;
47481;SDS011;33219;47.410;9.730;2023-07-16T13:12:17;4.30;;;2.30;;
47481;SDS011;33219;47.410;9.730;2023-07-16T13:14:45;4.20;;;2.20;;
47481;SDS011;33219;47.410;9.730;2023-07-16T13:17:13;3.62;;;2.12;;
47481;SDS011;33219;47.410;9.730;2023-07-16T13:19:42;4.00;;;2.50;;
47481;SDS011;33219;47.410;9.730;2023-07-16T13:22:10;3.67;;;2.15;;
47481;SDS011;33219;47.410;9.730;2023-07-16T13:24:40;3.42;;;2.22;;
47481;SDS011;33219;47.410;9.730;2023-07-16T13:27:09;3.83;;;2.30;;
47481;SDS011;33219;47.410;9.730;2023-07-16T13:29:39;3.55;;;2.15;;
47481;SDS011;33219;47.410;9.730;2023-07-16T13:32:07;3.25;;;2.00;;
47481;SDS011;33219;47.410;9.730;2023-07-16T13:34:36;3.83;;;2.37;;
47481;SDS011;33219;47.410;9.730;2023-07-16T13:37:04;3.27;;;2.47;;
47481;SDS011;33219;47.410;9.730;2023-07-16T13:39:32;3.98;;;2.67;;
47481;SDS011;33219;47.410;9.730;2023-07-16T13:42:00;4.00;;;1.92;;
47481;SDS011;33219;47.410;9.730;2023-07-16T13:44:29;3.55;;;1.80;;
47481;SDS011;33219;47.410;9.730;2023-07-16T13:46:57;3.77;;;2.47;;
47481;SDS011;33219;47.410;9.730;2023-07-16T13:49:26;5.15;;;3.65;;
47481;SDS011;33219;47.410;9.730;2023-07-16T13:51:54;3.40;;;2.33;;
47481;SDS011;33219;47.410;9.730;2023-07-16T13:54:23;3.00;;;2.00;;
47481;SDS011;33219;47.410;9.730;2023-07-16T13:56:51;3.17;;;2.42;;
47481;SDS011;33219;47.410;9.730;2023-07-16T13:59:20;4.25;;;2.22;;
47481;SDS011;33219;47.410;9.730;2023-07-16T14:01:58;3.98;;;2.37;;
47481;SDS011;33219;47.410;9.730;2023-07-16T14:04:19;2.77;;;2.02;;
47481;SDS011;33219;47.410;9.730;2023-07-16T14:06:47;3.17;;;2.10;;
47481;SDS011;33219;47.410;9.730;2023-07-16T14:09:16;3.05;;;2.00;;
47481;SDS011;33219;47.410;9.730;2023-07-16T14:11:44;3.15;;;2.20;;
47481;SDS011;33219;47.410;9.730;2023-07-16T14:14:14;4.03;;;2.15;;
47481;SDS011;33219;47.410;9.730;2023-07-16T14:16:42;4.60;;;2.00;;
47481;SDS011;33219;47.410;9.730;2023-07-16T14:19:11;2.95;;;2.15;;
47481;SDS011;33219;47.410;9.730;2023-07-16T14:21:39;3.52;;;2.12;;
47481;SDS011;33219;47.410;9.730;2023-07-16T14:24:07;4.37;;;2.30;;
47481;SDS011;33219;47.410;9.730;2023-07-16T14:26:35;3.50;;;2.25;;
47481;SDS011;33219;47.410;9.730;2023-07-16T14:29:04;4.00;;;2.65;;
47481;SDS011;33219;47.410;9.730;2023-07-16T14:31:33;3.95;;;2.50;;
47481;SDS011;33219;47.410;9.730;2023-07-16T14:34:01;4.85;;;2.60;;
47481;SDS011;33219;47.410;9.730;2023-07-16T14:36:29;5.17;;;2.40;;
47481;SDS011;33219;47.410;9.730;2023-07-16T14:38:58;3.72;;;2.30;;
47481;SDS011;33219;47.410;9.730;2023-07-16T14:41:27;3.62;;;2.30;;
47481;SDS011;33219;47.410;9.730;2023-07-16T14:43:56;3.72;;;2.62;;
47481;SDS011;33219;47.410;9.730;2023-07-16T14:46:24;3.22;;;2.17;;
47481;SDS011;33219;47.410;9.730;2023-07-16T14:48:53;3.98;;;1.87;;
47481;SDS011;33219;47.410;9.730;2023-07-16T14:51:22;4.80;;;2.62;;
47481;SDS011;33219;47.410;9.730;2023-07-16T14:53:51;3.20;;;2.30;;
47481;SDS011;33219;47.410;9.730;2023-07-16T14:56:21;3.72;;;2.45;;
47481;SDS011;33219;47.410;9.730;2023-07-16T14:58:49;4.00;;;2.10;;